createdAt,value
2022-08-21T00:02:18.986Z,17.90
2022-08-21T00:04:48.173Z,17.80
2022-08-21T00:07:24.354Z,17.80
2022-08-21T00:09:53.811Z,17.70
2022-08-21T00:12:22.297Z,17.70
2022-08-21T00:14:50.733Z,17.60
2022-08-21T00:17:26.888Z,17.60
2022-08-21T00:19:55.288Z,17.60
2022-08-21T00:22:23.556Z,17.70
2022-08-21T00:24:51.928Z,17.60
2022-08-21T00:27:20.509Z,17.60
2022-08-21T00:29:48.911Z,17.60
2022-08-21T00:32:23.515Z,17.50
2022-08-21T00:34:53.492Z,17.50
2022-08-21T00:37:22.445Z,17.40
2022-08-21T00:39:52.036Z,17.30
2022-08-21T00:42:21.368Z,17.30
2022-08-21T00:44:51.009Z,17.20
2022-08-21T00:47:19.899Z,17.20
2022-08-21T00:49:48.293Z,17.20
2022-08-21T00:52:23.107Z,17.20
2022-08-21T00:54:52.864Z,17.20
2022-08-21T00:57:26.188Z,17.20
2022-08-21T00:59:58.851Z,17.10
2022-08-21T01:02:27.700Z,17.10
2022-08-21T01:04:56.500Z,17.10
2022-08-21T01:07:27.641Z,17.10
2022-08-21T01:09:56.189Z,17.00
2022-08-21T01:12:24.859Z,17.00
2022-08-21T01:14:53.325Z,16.90
2022-08-21T01:17:23.078Z,16.90
2022-08-21T01:19:51.391Z,16.80
2022-08-21T01:22:21.331Z,16.80
2022-08-21T01:24:51.134Z,16.70
2022-08-21T01:27:19.455Z,16.60
2022-08-21T01:29:56.826Z,16.60
2022-08-21T01:32:25.174Z,16.60
2022-08-21T01:34:54.266Z,16.60
2022-08-21T01:37:25.325Z,16.60
2022-08-21T01:39:54.524Z,16.60
2022-08-21T01:42:22.967Z,16.50
2022-08-21T01:44:51.449Z,16.40
2022-08-21T01:47:25.162Z,16.40
2022-08-21T01:49:53.981Z,16.40
2022-08-21T01:52:22.461Z,16.30
2022-08-21T01:54:55.048Z,16.20
2022-08-21T01:57:26.240Z,16.10
2022-08-21T01:59:55.007Z,16.10
2022-08-21T02:02:23.325Z,16.10
2022-08-21T02:04:51.709Z,16.00
2022-08-21T02:07:20.035Z,16.00
2022-08-21T02:09:48.363Z,16.00
2022-08-21T02:12:18.389Z,15.90
2022-08-21T02:14:46.683Z,15.90
2022-08-21T02:17:15.152Z,15.90
2022-08-21T02:19:43.545Z,15.90
2022-08-21T02:22:12.453Z,15.90
2022-08-21T02:24:55.024Z,15.90
2022-08-21T02:27:27.291Z,15.90
2022-08-21T02:29:56.961Z,15.90
2022-08-21T02:32:25.229Z,15.80
2022-08-21T02:34:53.663Z,15.70
2022-08-21T02:37:21.949Z,15.80
2022-08-21T02:39:50.733Z,15.90
2022-08-21T02:42:20.189Z,15.90
2022-08-21T02:44:50.112Z,15.80
2022-08-21T02:47:18.427Z,15.80
2022-08-21T02:49:46.913Z,15.80
2022-08-21T02:52:15.719Z,15.70
2022-08-21T02:54:43.975Z,15.80
2022-08-21T02:57:12.332Z,15.80
2022-08-21T02:59:41.786Z,15.80
2022-08-21T03:02:12.593Z,15.80
2022-08-21T03:04:45.988Z,15.70
2022-08-21T03:07:16.459Z,15.80
2022-08-21T03:09:55.347Z,15.80
2022-08-21T03:12:26.598Z,15.80
2022-08-21T03:14:58.836Z,15.60
2022-08-21T03:17:29.407Z,15.50
2022-08-21T03:19:58.796Z,15.50
2022-08-21T03:22:27.563Z,15.50
2022-08-21T03:24:58.238Z,15.60
2022-08-21T03:27:27.683Z,15.50
2022-08-21T03:29:58.138Z,15.40
2022-08-21T03:32:28.529Z,15.20
2022-08-21T03:34:56.840Z,15.20
2022-08-21T03:37:25.921Z,15.10
2022-08-21T03:42:23.080Z,15.00
2022-08-21T03:44:51.644Z,14.90
2022-08-21T03:47:20.229Z,14.90
2022-08-21T03:49:50.301Z,14.90
2022-08-21T03:52:18.974Z,14.90
2022-08-21T03:54:48.694Z,14.90
2022-08-21T03:57:17.038Z,15.00
2022-08-21T03:59:45.529Z,15.00
2022-08-21T04:02:18.055Z,15.10
2022-08-21T04:04:48.330Z,15.10
2022-08-21T04:07:18.570Z,15.10
2022-08-21T04:09:47.034Z,15.00
2022-08-21T04:12:15.528Z,14.90
2022-08-21T04:14:43.968Z,14.90
2022-08-21T04:17:12.263Z,14.90
2022-08-21T04:19:40.941Z,14.90
2022-08-21T04:22:09.230Z,14.80
2022-08-21T04:24:39.098Z,14.80
2022-08-21T04:27:07.537Z,14.80
2022-08-21T04:29:39.816Z,14.80
2022-08-21T04:32:08.799Z,14.80
2022-08-21T04:34:37.408Z,14.80
2022-08-21T04:37:06.057Z,14.80
2022-08-21T04:39:34.516Z,14.80
2022-08-21T04:42:04.348Z,14.80
2022-08-21T04:44:33.030Z,14.80
2022-08-21T04:47:01.343Z,14.80
2022-08-21T04:49:29.608Z,14.90
2022-08-21T04:51:57.940Z,14.90
2022-08-21T04:54:26.546Z,14.90
2022-08-21T04:56:58.285Z,14.90
2022-08-21T04:59:33.408Z,14.90
2022-08-21T05:02:03.118Z,14.90
2022-08-21T05:04:35.020Z,15.00
2022-08-21T05:07:08.122Z,14.90
2022-08-21T05:09:36.994Z,14.90
2022-08-21T05:12:05.886Z,14.90
2022-08-21T05:14:36.125Z,14.90
2022-08-21T05:17:05.458Z,14.80
2022-08-21T05:19:33.985Z,14.80
2022-08-21T05:22:02.894Z,14.70
2022-08-21T05:24:31.446Z,14.80
2022-08-21T05:27:00.240Z,14.60
2022-08-21T05:29:32.467Z,14.70
2022-08-21T05:32:02.215Z,14.90
2022-08-21T05:34:31.466Z,14.90
2022-08-21T05:37:03.105Z,14.90
2022-08-21T05:40:05.175Z,15.00
2022-08-21T05:42:22.858Z,15.20
2022-08-21T05:44:51.204Z,15.20
2022-08-21T05:47:20.922Z,15.10
2022-08-21T05:49:49.371Z,15.20
2022-08-21T05:52:21.815Z,15.30
2022-08-21T05:54:50.803Z,15.50
2022-08-21T05:57:19.156Z,15.50
2022-08-21T05:59:47.518Z,15.40
2022-08-21T06:02:15.985Z,15.20
2022-08-21T06:04:45.693Z,15.20
2022-08-21T06:07:14.325Z,15.30
2022-08-21T06:09:43.126Z,15.30
2022-08-21T06:12:13.571Z,15.30
2022-08-21T06:14:43.993Z,15.30
2022-08-21T06:17:14.657Z,15.40
2022-08-21T06:19:43.344Z,15.30
2022-08-21T06:22:15.808Z,15.40
2022-08-21T06:24:44.175Z,15.50
2022-08-21T06:27:12.584Z,15.40
2022-08-21T06:29:44.107Z,15.20
2022-08-21T06:32:13.962Z,15.60
2022-08-21T06:34:44.623Z,15.80
2022-08-21T06:37:12.962Z,15.90
2022-08-21T06:39:45.341Z,15.90
2022-08-21T06:42:16.808Z,15.80
2022-08-21T06:44:46.284Z,16.10
2022-08-21T06:47:14.635Z,16.00
2022-08-21T06:49:43.097Z,16.00
2022-08-21T06:52:12.902Z,15.90
2022-08-21T06:54:43.444Z,16.10
2022-08-21T06:57:11.754Z,16.20
2022-08-21T06:59:40.108Z,16.40
2022-08-21T07:02:08.840Z,16.40
2022-08-21T07:04:46.287Z,16.70
2022-08-21T07:07:24.762Z,17.20
2022-08-21T07:10:08.064Z,19.00
2022-08-21T07:29:09.070Z,21.60
2022-08-21T07:31:50.895Z,22.70
2022-08-21T07:34:30.662Z,24.50
2022-08-21T07:37:12.226Z,26.10
2022-08-21T07:39:45.256Z,24.70
2022-08-21T07:42:36.941Z,25.40
2022-08-21T07:47:57.674Z,24.70
2022-08-21T07:50:30.822Z,25.20
2022-08-21T08:01:43.686Z,25.60
2022-08-21T08:38:52.832Z,26.60
2022-08-21T08:41:48.220Z,28.20
2022-08-21T08:44:54.128Z,27.30
2022-08-21T08:47:24.289Z,28.40
2022-08-21T08:50:11.094Z,29.20
2022-08-21T08:53:22.639Z,29.00
2022-08-21T08:55:59.746Z,29.30
2022-08-21T08:58:42.172Z,30.10
2022-08-21T09:01:23.464Z,28.80
2022-08-21T09:04:04.216Z,29.60
2022-08-21T09:07:06.270Z,27.60
2022-08-21T09:09:52.632Z,27.00
2022-08-21T09:12:42.978Z,26.80
2022-08-21T09:15:34.068Z,27.30
2022-08-21T09:18:24.551Z,28.30
2022-08-21T09:21:28.360Z,26.80
2022-08-21T09:24:23.402Z,26.30
2022-08-21T09:27:12.385Z,27.10
2022-08-21T09:30:01.910Z,29.20
2022-08-21T09:32:52.853Z,29.10
2022-08-21T09:35:37.220Z,27.80
2022-08-21T09:38:32.860Z,30.00
2022-08-21T09:41:15.669Z,27.90
2022-08-21T09:44:16.132Z,26.00
2022-08-21T09:47:10.689Z,25.00
2022-08-21T09:50:10.157Z,24.40
2022-08-21T09:58:56.313Z,24.50
2022-08-21T10:01:39.423Z,25.30
2022-08-21T10:07:22.070Z,25.00
2022-08-21T10:10:13.523Z,23.90
2022-08-21T10:12:59.811Z,24.40
2022-08-21T10:15:57.783Z,24.50
2022-08-21T10:22:11.553Z,24.90
2022-08-21T10:24:54.757Z,24.10
2022-08-21T10:27:36.473Z,24.60
2022-08-21T10:30:25.063Z,24.60
2022-08-21T10:33:20.809Z,24.40
2022-08-21T10:36:23.212Z,24.20
2022-08-21T10:39:36.146Z,24.20
2022-08-21T10:42:53.746Z,24.10
2022-08-21T10:45:44.275Z,24.20
2022-08-21T10:48:36.182Z,23.80
2022-08-21T10:51:14.893Z,24.00
2022-08-21T10:53:58.836Z,24.20
2022-08-21T10:57:09.893Z,24.40
2022-08-21T10:59:59.677Z,24.20
2022-08-21T11:02:43.114Z,24.50
2022-08-21T11:08:37.003Z,24.10
2022-08-21T11:11:53.772Z,24.60
2022-08-21T11:15:29.107Z,24.50
2022-08-21T11:18:28.763Z,24.40
2022-08-21T11:21:24.613Z,24.10
2022-08-21T11:24:26.660Z,24.10
2022-08-21T11:27:08.456Z,24.20
2022-08-21T11:32:58.961Z,25.20
2022-08-21T11:35:38.612Z,25.20
2022-08-21T11:38:35.706Z,25.20
2022-08-21T11:41:33.266Z,24.80
2022-08-21T11:44:19.184Z,24.80
2022-08-21T11:47:07.561Z,25.00
2022-08-21T11:50:32.216Z,24.60
2022-08-21T11:53:12.459Z,24.80
2022-08-21T11:56:09.572Z,25.20
2022-08-21T11:59:01.131Z,25.20
2022-08-21T12:01:38.622Z,25.50
2022-08-21T12:04:14.529Z,25.70
2022-08-21T12:07:04.919Z,25.50
2022-08-21T12:09:37.785Z,24.80
2022-08-21T12:12:12.663Z,24.60
2022-08-21T12:14:44.049Z,25.10
2022-08-21T12:17:21.004Z,25.10
2022-08-21T12:20:00.697Z,24.70
2022-08-21T12:22:41.925Z,25.20
2022-08-21T12:25:15.752Z,25.70
2022-08-21T12:27:49.716Z,25.90
2022-08-21T12:30:36.911Z,25.80
2022-08-21T12:33:07.708Z,25.50
2022-08-21T12:35:41.393Z,25.90
2022-08-21T12:38:19.799Z,26.30
2022-08-21T12:40:54.727Z,26.10
2022-08-21T12:43:26.466Z,26.20
2022-08-21T12:45:54.975Z,26.70
2022-08-21T12:48:28.655Z,26.20
2022-08-21T12:51:00.329Z,25.40
2022-08-21T12:53:35.480Z,25.40
2022-08-21T12:56:05.272Z,25.60
2022-08-21T12:58:34.594Z,26.00
2022-08-21T13:01:06.479Z,25.80
2022-08-21T13:03:38.472Z,26.00
2022-08-21T13:06:10.702Z,26.10
2022-08-21T13:08:44.432Z,25.50
2022-08-21T13:11:32.761Z,26.20
2022-08-21T13:14:04.778Z,26.70
2022-08-21T13:16:35.673Z,26.80
2022-08-21T13:19:07.453Z,26.80
2022-08-21T13:21:40.977Z,27.10
2022-08-21T13:24:41.687Z,26.70
2022-08-21T13:27:23.487Z,26.50
2022-08-21T13:30:05.800Z,26.70
2022-08-21T13:32:37.123Z,26.70
2022-08-21T13:35:15.997Z,26.80
2022-08-21T13:37:46.950Z,26.90
2022-08-21T13:40:21.187Z,27.00
2022-08-21T13:42:51.168Z,27.00
2022-08-21T13:45:25.662Z,26.60
2022-08-21T13:47:55.764Z,26.70
2022-08-21T13:50:27.802Z,26.20
2022-08-21T13:53:02.559Z,26.30
2022-08-21T13:55:41.128Z,25.80
2022-08-21T13:58:10.300Z,25.60
2022-08-21T14:00:47.556Z,25.80
2022-08-21T14:03:29.745Z,26.00
2022-08-21T14:06:00.197Z,25.70
2022-08-21T14:08:35.601Z,25.90
2022-08-21T14:11:08.030Z,26.00
2022-08-21T14:13:40.545Z,26.20
2022-08-21T14:16:17.637Z,26.50
2022-08-21T14:18:48.317Z,26.60
2022-08-21T14:21:27.461Z,26.50
2022-08-21T14:24:04.417Z,26.70
2022-08-21T14:26:36.854Z,26.80
2022-08-21T14:29:11.307Z,26.60
2022-08-21T14:31:43.146Z,26.60
2022-08-21T14:34:19.703Z,26.30
2022-08-21T14:36:49.670Z,26.10
2022-08-21T14:39:18.409Z,26.00
2022-08-21T14:41:49.575Z,26.20
2022-08-21T14:44:19.265Z,26.10
2022-08-21T14:46:55.424Z,26.30
2022-08-21T14:49:27.381Z,26.60
2022-08-21T14:51:58.513Z,26.60
2022-08-21T14:54:30.727Z,26.00
2022-08-21T14:57:04.685Z,26.00
2022-08-21T14:59:34.331Z,26.20
2022-08-21T15:02:05.100Z,26.20
2022-08-21T15:04:33.711Z,26.70
2022-08-21T15:07:02.207Z,26.70
2022-08-21T15:09:30.574Z,26.70
2022-08-21T15:12:03.234Z,26.60
2022-08-21T15:14:34.583Z,26.60
2022-08-21T15:17:04.536Z,26.40
2022-08-21T15:19:32.888Z,26.60
2022-08-21T15:22:01.233Z,26.70
2022-08-21T15:24:29.815Z,26.50
2022-08-21T15:27:01.015Z,26.60
2022-08-21T15:29:32.619Z,26.40
2022-08-21T15:32:03.555Z,26.50
2022-08-21T15:34:33.134Z,26.50
2022-08-21T15:37:01.563Z,26.40
2022-08-21T15:39:31.572Z,26.60
2022-08-21T15:42:11.297Z,26.40
2022-08-21T15:44:42.193Z,26.20
2022-08-21T15:47:14.704Z,26.30
2022-08-21T15:49:46.102Z,26.40
2022-08-21T15:52:14.956Z,26.20
2022-08-21T15:54:43.822Z,26.30
2022-08-21T15:57:14.095Z,26.20
2022-08-21T15:59:46.715Z,26.30
2022-08-21T16:02:17.512Z,26.20
2022-08-21T16:04:46.185Z,26.10
2022-08-21T16:07:14.785Z,26.40
2022-08-21T16:09:43.318Z,26.30
2022-08-21T16:12:15.090Z,26.40
2022-08-21T16:14:45.064Z,26.20
2022-08-21T16:17:13.594Z,26.10
2022-08-21T16:19:42.129Z,26.20
2022-08-21T16:22:10.706Z,26.10
2022-08-21T16:24:39.109Z,26.10
2022-08-21T16:27:09.258Z,25.90
2022-08-21T16:29:39.689Z,25.90
2022-08-21T16:32:10.184Z,26.00
2022-08-21T16:34:39.389Z,25.90
2022-08-21T16:37:08.011Z,25.70
2022-08-21T16:39:37.118Z,25.60
2022-08-21T16:42:06.890Z,25.50
2022-08-21T16:44:35.540Z,25.50
2022-08-21T16:47:06.249Z,25.50
2022-08-21T16:49:36.294Z,25.50
2022-08-21T16:52:05.437Z,25.60
2022-08-21T16:54:34.152Z,25.60
2022-08-21T16:57:02.667Z,25.50
2022-08-21T16:59:31.017Z,25.30
2022-08-21T17:02:22.400Z,25.30
2022-08-21T17:04:58.583Z,25.40
2022-08-21T17:07:27.087Z,25.30
2022-08-21T17:09:55.446Z,25.30
2022-08-21T17:12:28.247Z,25.20
2022-08-21T17:15:02.417Z,25.20
2022-08-21T17:17:32.842Z,25.20
2022-08-21T17:20:02.553Z,25.10
2022-08-21T17:22:31.037Z,25.00
2022-08-21T17:24:59.465Z,25.00
2022-08-21T17:27:29.272Z,24.90
2022-08-21T17:29:58.083Z,24.80
2022-08-21T17:32:31.327Z,24.70
2022-08-21T17:35:01.028Z,24.60
2022-08-21T17:37:31.868Z,24.50
2022-08-21T17:40:11.828Z,24.40
2022-08-21T17:42:41.702Z,24.50
2022-08-21T17:45:19.648Z,24.40
2022-08-21T17:47:48.166Z,24.30
2022-08-21T17:50:22.904Z,24.20
2022-08-21T17:52:53.934Z,24.10
2022-08-21T17:55:24.589Z,24.00
2022-08-21T17:57:55.508Z,24.00
2022-08-21T18:00:26.001Z,23.90
2022-08-21T18:03:02.471Z,23.90
2022-08-21T18:05:32.719Z,23.90
2022-08-21T18:08:01.038Z,23.80
2022-08-21T18:10:30.172Z,23.70
2022-08-21T18:13:00.006Z,23.60
2022-08-21T18:15:28.506Z,23.50
2022-08-21T18:17:57.544Z,23.50
2022-08-21T18:20:26.453Z,23.40
2022-08-21T18:22:56.430Z,23.30
2022-08-21T18:25:25.146Z,23.20
2022-08-21T18:27:53.661Z,23.10
2022-08-21T18:32:53.724Z,23.10
2022-08-21T18:35:22.407Z,22.80
2022-08-21T18:37:50.822Z,22.70
2022-08-21T18:40:21.964Z,22.60
2022-08-21T18:42:55.506Z,22.50
2022-08-21T18:45:25.213Z,22.40
2022-08-21T18:47:55.629Z,22.40
2022-08-21T18:50:26.505Z,22.30
2022-08-21T18:52:55.423Z,22.30
2022-08-21T18:55:27.327Z,22.30
2022-08-21T18:57:57.483Z,22.30
2022-08-21T19:00:28.922Z,22.30
2022-08-21T19:02:58.689Z,22.30
2022-08-21T19:05:28.462Z,22.30
2022-08-21T19:07:58.097Z,22.20
2022-08-21T19:10:30.505Z,22.10
2022-08-21T19:13:00.913Z,22.10
2022-08-21T19:15:29.807Z,21.90
2022-08-21T19:17:59.645Z,21.90
2022-08-21T19:20:32.848Z,21.80
2022-08-21T19:23:02.302Z,21.60
2022-08-21T19:25:33.300Z,21.50
2022-08-21T19:28:10.868Z,21.40
2022-08-21T19:30:45.935Z,21.30
2022-08-21T19:33:23.826Z,21.30
2022-08-21T19:35:52.894Z,21.20
2022-08-21T20:21:04.787Z,21.00
2022-08-21T20:23:34.189Z,19.70
2022-08-21T20:26:05.855Z,19.60
2022-08-21T20:28:36.619Z,19.50
2022-08-21T20:31:09.550Z,19.40
2022-08-21T20:33:38.320Z,18.90
2022-08-21T20:36:07.130Z,18.80
2022-08-21T20:38:35.510Z,18.40
2022-08-21T20:41:16.299Z,18.50
2022-08-21T20:43:51.046Z,18.70
2022-08-21T20:46:24.834Z,18.90
2022-08-21T20:48:53.629Z,18.90
2022-08-21T20:51:27.227Z,18.90
2022-08-21T20:54:03.805Z,18.90
2022-08-21T20:56:41.136Z,18.90
2022-08-21T20:59:22.552Z,18.90
2022-08-21T21:01:56.844Z,18.90
2022-08-21T21:04:38.414Z,18.90
2022-08-21T21:07:10.483Z,18.90
2022-08-21T21:09:44.792Z,18.80
2022-08-21T21:12:27.618Z,18.70
2022-08-21T21:14:59.696Z,18.70
2022-08-21T21:17:33.231Z,18.70
2022-08-21T21:20:08.315Z,18.70
2022-08-21T21:22:46.276Z,18.50
2022-08-21T21:25:19.773Z,18.40
2022-08-21T21:27:54.714Z,18.20
2022-08-21T21:30:26.052Z,18.10
2022-08-21T21:32:54.750Z,18.10
2022-08-21T21:35:32.619Z,18.00
2022-08-21T21:38:12.761Z,17.90
2022-08-21T21:40:50.658Z,17.80
2022-08-21T21:43:30.747Z,17.70
2022-08-21T21:46:16.909Z,17.70
2022-08-21T21:49:00.612Z,17.70
2022-08-21T21:51:52.062Z,17.70
2022-08-21T21:54:52.226Z,17.70
2022-08-21T21:57:42.825Z,17.70
2022-08-21T22:00:18.370Z,17.70
2022-08-21T22:02:55.776Z,17.70
2022-08-21T22:05:40.161Z,17.70
2022-08-21T22:08:16.869Z,17.50
2022-08-21T22:10:53.297Z,17.40
2022-08-21T22:13:29.772Z,17.30
2022-08-21T22:16:05.598Z,17.40
2022-08-21T22:18:38.525Z,17.30
2022-08-21T22:21:18.463Z,17.20
2022-08-21T22:23:56.895Z,17.10
2022-08-21T22:26:38.316Z,17.00
2022-08-21T22:29:12.750Z,17.10
2022-08-21T22:31:43.112Z,17.10
2022-08-21T22:37:06.179Z,17.20
2022-08-21T22:39:39.458Z,17.10
2022-08-21T22:42:13.664Z,17.10
2022-08-21T22:44:56.357Z,17.10
2022-08-21T22:47:34.821Z,17.00
2022-08-21T22:50:05.726Z,16.90
2022-08-21T22:52:36.949Z,16.90
2022-08-21T22:55:25.754Z,16.90
2022-08-21T22:58:09.176Z,16.70
2022-08-21T23:00:53.398Z,16.80
2022-08-21T23:03:32.510Z,16.80
2022-08-21T23:06:03.108Z,16.80
2022-08-21T23:08:44.252Z,16.70
2022-08-21T23:11:17.202Z,16.70
2022-08-21T23:13:47.858Z,16.70
2022-08-21T23:16:37.010Z,16.70
2022-08-21T23:19:17.520Z,16.70
2022-08-21T23:21:52.534Z,16.60
2022-08-21T23:24:46.574Z,16.70
2022-08-21T23:30:25.821Z,16.50
2022-08-21T23:33:25.029Z,16.60
2022-08-21T23:36:25.500Z,16.60
2022-08-21T23:39:12.554Z,16.40
2022-08-21T23:41:51.300Z,16.30
2022-08-21T23:44:33.839Z,16.40
2022-08-21T23:47:12.049Z,16.10
2022-08-21T23:49:53.766Z,15.90
2022-08-21T23:52:34.398Z,15.80
2022-08-21T23:55:27.567Z,15.70
2022-08-21T23:58:06.168Z,15.60
